createdAt,value
2023-03-21T00:00:51.041Z,5.20
2023-03-21T00:03:19.289Z,6.00
2023-03-21T00:05:52.357Z,5.72
2023-03-21T00:08:21.222Z,5.78
2023-03-21T00:10:56.831Z,5.38
2023-03-21T00:13:26.528Z,5.78
2023-03-21T00:16:05.313Z,5.57
2023-03-21T00:18:42.566Z,5.82
2023-03-21T00:21:39.604Z,5.28
2023-03-21T00:24:03.971Z,5.35
2023-03-21T00:26:32.660Z,4.88
2023-03-21T00:29:00.586Z,5.20
2023-03-21T00:31:29.323Z,4.72
2023-03-21T00:33:58.026Z,4.87
2023-03-21T00:36:27.237Z,4.90
2023-03-21T00:38:55.595Z,5.10
2023-03-21T00:41:40.955Z,4.57
2023-03-21T00:44:10.497Z,4.72
2023-03-21T00:46:57.388Z,4.80
2023-03-21T00:49:28.246Z,4.63
2023-03-21T00:54:38.981Z,5.03
2023-03-21T00:59:35.676Z,4.65
2023-03-21T01:02:07.976Z,4.57
2023-03-21T01:04:36.180Z,5.00
2023-03-21T01:07:05.726Z,4.93
2023-03-21T01:12:23.947Z,5.07
2023-03-21T01:14:52.022Z,4.77
2023-03-21T01:17:20.064Z,4.55
2023-03-21T01:19:52.048Z,4.97
2023-03-21T01:22:22.418Z,5.47
2023-03-21T01:24:55.433Z,5.07
2023-03-21T01:27:26.567Z,5.00
2023-03-21T01:29:55.269Z,4.90
2023-03-21T01:32:23.249Z,4.78
2023-03-21T01:34:51.768Z,5.20
2023-03-21T01:37:21.173Z,4.82
2023-03-21T01:39:49.341Z,4.85
2023-03-21T01:42:17.519Z,5.05
2023-03-21T01:44:58.571Z,5.03
2023-03-21T01:47:27.351Z,5.35
2023-03-21T01:49:57.921Z,5.00
2023-03-21T01:52:37.514Z,5.35
2023-03-21T01:55:12.070Z,4.78
2023-03-21T01:57:58.498Z,5.28
2023-03-21T02:00:32.420Z,5.05
2023-03-21T02:03:12.784Z,5.43
2023-03-21T02:05:55.693Z,5.25
2023-03-21T02:08:38.291Z,5.20
2023-03-21T02:11:07.825Z,5.50
2023-03-21T02:13:36.975Z,5.35
2023-03-21T02:16:15.382Z,4.85
2023-03-21T02:18:53.550Z,5.05
2023-03-21T02:22:10.266Z,4.68
2023-03-21T02:25:25.457Z,5.03
2023-03-21T02:27:59.124Z,4.75
2023-03-21T02:31:04.689Z,5.47
2023-03-21T02:34:06.586Z,4.47
2023-03-21T02:36:52.577Z,4.47
2023-03-21T02:39:26.891Z,4.32
2023-03-21T02:42:04.340Z,3.67
2023-03-21T02:44:41.464Z,3.65
2023-03-21T02:47:13.922Z,3.35
2023-03-21T02:49:48.674Z,4.07
2023-03-21T02:52:35.874Z,3.42
2023-03-21T02:55:13.544Z,4.18
2023-03-21T02:57:44.436Z,3.47
2023-03-21T03:00:18.137Z,3.28
2023-03-21T03:02:48.844Z,3.35
2023-03-21T03:05:21.600Z,2.90
2023-03-21T03:08:17.203Z,3.45
2023-03-21T03:10:57.376Z,3.13
2023-03-21T03:13:39.405Z,3.22
2023-03-21T03:16:21.850Z,3.42
2023-03-21T03:18:54.253Z,3.15
2023-03-21T03:21:27.409Z,3.50
2023-03-21T03:24:00.942Z,3.92
2023-03-21T03:26:34.625Z,3.60
2023-03-21T03:29:07.461Z,3.47
2023-03-21T03:31:42.176Z,3.75
2023-03-21T03:34:14.280Z,3.88
2023-03-21T03:36:47.585Z,3.55
2023-03-21T03:39:19.695Z,4.22
2023-03-21T03:42:07.854Z,3.95
2023-03-21T03:44:40.798Z,3.85
2023-03-21T03:47:15.135Z,3.63
2023-03-21T03:49:52.337Z,4.00
2023-03-21T03:52:24.790Z,4.03
2023-03-21T03:54:55.323Z,3.92
2023-03-21T03:57:23.483Z,4.40
2023-03-21T03:59:51.237Z,4.30
2023-03-21T04:02:20.790Z,5.00
2023-03-21T04:04:52.835Z,4.57
2023-03-21T04:07:21.903Z,4.85
2023-03-21T04:09:49.578Z,4.70
2023-03-21T04:12:18.619Z,5.55
2023-03-21T04:14:47.566Z,5.28
2023-03-21T04:17:16.778Z,5.55
2023-03-21T04:19:45.414Z,5.80
2023-03-21T04:22:13.833Z,6.27
2023-03-21T04:24:42.650Z,5.97
2023-03-21T04:27:10.507Z,6.90
2023-03-21T04:29:40.261Z,6.20
2023-03-21T04:32:16.169Z,6.35
2023-03-21T04:34:50.514Z,6.10
2023-03-21T04:37:18.972Z,6.30
2023-03-21T04:39:47.605Z,6.15
2023-03-21T04:42:15.659Z,6.30
2023-03-21T04:44:44.878Z,6.15
2023-03-21T04:47:13.281Z,6.25
2023-03-21T04:49:41.592Z,6.90
2023-03-21T04:52:09.318Z,7.00
2023-03-21T04:54:37.669Z,5.90
2023-03-21T04:57:06.808Z,6.40
2023-03-21T04:59:34.848Z,6.28
2023-03-21T05:02:03.945Z,6.78
2023-03-21T05:04:32.767Z,6.32
2023-03-21T05:07:00.457Z,6.30
2023-03-21T05:09:28.247Z,7.25
2023-03-21T05:11:56.516Z,6.75
2023-03-21T05:14:26.505Z,6.22
2023-03-21T05:16:56.351Z,5.75
2023-03-21T05:19:35.054Z,6.25
2023-03-21T05:22:05.556Z,6.20
2023-03-21T05:24:33.980Z,6.22
2023-03-21T05:27:03.196Z,6.80
2023-03-21T05:29:32.006Z,6.60
2023-03-21T05:32:00.315Z,6.07
2023-03-21T05:34:30.168Z,6.22
2023-03-21T05:36:58.528Z,6.13
2023-03-21T05:39:26.207Z,6.70
2023-03-21T05:41:54.130Z,6.25
2023-03-21T05:44:22.947Z,6.20
2023-03-21T05:46:50.625Z,5.70
2023-03-21T05:49:18.837Z,6.00
2023-03-21T05:51:47.870Z,5.88
2023-03-21T05:54:16.668Z,6.28
2023-03-21T05:56:44.971Z,6.10
2023-03-21T05:59:12.726Z,5.95
2023-03-21T06:01:40.440Z,5.43
2023-03-21T06:04:08.887Z,4.90
2023-03-21T06:06:36.684Z,4.45
2023-03-21T06:09:06.604Z,5.78
2023-03-21T06:11:36.459Z,4.45
2023-03-21T06:14:04.853Z,4.95
2023-03-21T06:16:32.790Z,5.03
2023-03-21T06:19:00.857Z,5.15
2023-03-21T06:21:28.539Z,5.28
2023-03-21T06:23:56.213Z,5.22
2023-03-21T06:26:25.833Z,5.80
2023-03-21T06:31:22.625Z,5.53
2023-03-21T06:33:52.167Z,5.13
2023-03-21T06:36:20.945Z,5.53
2023-03-21T06:38:49.028Z,4.73
2023-03-21T06:41:17.667Z,5.75
2023-03-21T06:43:46.788Z,4.53
2023-03-21T06:46:14.528Z,5.10
2023-03-21T06:48:45.043Z,4.60
2023-03-21T06:51:13.793Z,5.00
2023-03-21T06:53:42.077Z,5.53
2023-03-21T06:56:11.277Z,4.97
2023-03-21T06:58:39.302Z,4.63
2023-03-21T07:01:09.338Z,5.30
2023-03-21T07:03:38.458Z,4.25
2023-03-21T07:06:08.645Z,3.83
2023-03-21T07:08:37.196Z,4.18
2023-03-21T07:13:54.194Z,3.80
2023-03-21T07:16:24.911Z,3.40
2023-03-21T07:18:53.139Z,3.60
2023-03-21T07:21:21.366Z,3.33
2023-03-21T07:23:50.513Z,3.22
2023-03-21T07:26:18.453Z,2.88
2023-03-21T07:28:46.517Z,2.85
2023-03-21T07:31:17.707Z,2.92
2023-03-21T07:33:46.828Z,2.70
2023-03-21T07:36:16.349Z,2.58
2023-03-21T07:38:44.691Z,2.67
2023-03-21T07:41:13.205Z,2.47
2023-03-21T07:43:41.037Z,2.70
2023-03-21T07:46:09.387Z,2.50
2023-03-21T07:48:37.233Z,2.65
2023-03-21T07:51:06.704Z,2.90
2023-03-21T07:53:34.517Z,2.95
2023-03-21T07:56:02.201Z,2.85
2023-03-21T07:58:29.933Z,2.67
2023-03-21T08:00:59.894Z,3.30
2023-03-21T08:03:29.285Z,3.00
2023-03-21T08:05:57.026Z,3.33
2023-03-21T08:08:26.501Z,3.47
2023-03-21T08:10:54.242Z,3.03
2023-03-21T08:13:21.947Z,3.58
2023-03-21T08:15:50.478Z,3.55
2023-03-21T08:18:18.179Z,3.55
2023-03-21T08:20:46.455Z,3.60
2023-03-21T08:23:15.386Z,4.30
2023-03-21T08:25:47.716Z,3.85
2023-03-21T08:28:15.922Z,3.28
2023-03-21T08:30:48.722Z,3.47
2023-03-21T08:33:19.293Z,3.72
2023-03-21T08:35:47.453Z,3.78
2023-03-21T08:38:15.605Z,3.75
2023-03-21T08:40:45.052Z,3.80
2023-03-21T08:43:14.771Z,4.03
2023-03-21T08:45:42.938Z,3.53
2023-03-21T08:48:11.523Z,3.75
2023-03-21T08:50:39.616Z,3.55
2023-03-21T08:53:07.568Z,3.92
2023-03-21T08:55:36.188Z,4.30
2023-03-21T08:58:07.361Z,3.60
2023-03-21T09:00:35.899Z,4.00
2023-03-21T09:03:04.985Z,3.58
2023-03-21T09:05:33.065Z,4.07
2023-03-21T09:08:02.197Z,3.80
2023-03-21T09:10:30.724Z,3.55
2023-03-21T09:12:58.927Z,3.45
2023-03-21T09:15:30.376Z,3.60
2023-03-21T09:18:13.841Z,4.05
2023-03-21T09:20:43.487Z,4.18
2023-03-21T09:25:40.960Z,3.70
2023-03-21T09:28:10.429Z,3.60
2023-03-21T09:30:39.653Z,4.32
2023-03-21T09:33:08.607Z,3.70
2023-03-21T09:35:37.746Z,3.90
2023-03-21T09:38:05.993Z,3.95
2023-03-21T09:40:53.258Z,3.28
2023-03-21T09:43:33.141Z,3.60
2023-03-21T09:46:12.031Z,3.60
2023-03-21T09:48:56.683Z,4.53
2023-03-21T09:51:29.274Z,3.78
2023-03-21T09:54:00.949Z,4.03
2023-03-21T09:56:30.828Z,3.88
2023-03-21T09:59:02.432Z,3.70
2023-03-21T10:01:34.897Z,4.18
2023-03-21T10:04:06.748Z,4.13
2023-03-21T10:06:40.851Z,4.40
2023-03-21T10:09:15.099Z,3.60
2023-03-21T10:11:46.691Z,3.40
2023-03-21T10:14:20.575Z,4.18
2023-03-21T10:16:55.541Z,3.55
2023-03-21T10:19:23.496Z,3.20
2023-03-21T10:22:02.347Z,3.75
2023-03-21T10:24:34.745Z,3.03
2023-03-21T10:27:04.349Z,3.05
2023-03-21T10:32:04.438Z,3.47
2023-03-21T10:34:37.013Z,3.65
2023-03-21T10:37:07.247Z,3.78
2023-03-21T10:39:38.307Z,3.22
2023-03-21T10:42:07.236Z,3.08
2023-03-21T10:44:36.067Z,3.10
2023-03-21T10:47:08.732Z,3.10
2023-03-21T10:50:05.855Z,3.55
2023-03-21T10:52:30.109Z,3.13
2023-03-21T10:55:09.516Z,3.38
2023-03-21T10:57:39.430Z,2.90
2023-03-21T11:00:18.274Z,3.28
2023-03-21T11:02:51.704Z,3.38
2023-03-21T11:05:23.264Z,3.33
2023-03-21T11:08:00.826Z,3.30
2023-03-21T11:10:32.392Z,3.45
2023-03-21T11:13:05.667Z,4.22
2023-03-21T11:15:42.556Z,3.72
2023-03-21T11:18:21.862Z,3.38
2023-03-21T11:20:53.474Z,3.67
2023-03-21T11:23:22.754Z,3.85
2023-03-21T11:25:52.228Z,3.78
2023-03-21T11:28:24.687Z,3.83
2023-03-21T11:30:55.410Z,3.88
2023-03-21T11:33:28.952Z,4.10
2023-03-21T11:36:05.041Z,4.10
2023-03-21T11:38:37.834Z,4.10
2023-03-21T11:41:07.489Z,4.18
2023-03-21T11:46:09.106Z,4.40
2023-03-21T11:48:42.293Z,4.90
2023-03-21T11:51:22.993Z,4.70
2023-03-21T11:53:56.669Z,4.63
2023-03-21T11:56:29.349Z,4.05
2023-03-21T11:59:19.488Z,3.95
2023-03-21T12:02:07.531Z,4.32
2023-03-21T12:04:47.590Z,4.00
2023-03-21T12:07:35.048Z,4.20
2023-03-21T12:10:18.855Z,4.32
2023-03-21T12:12:57.873Z,4.57
2023-03-21T12:15:32.155Z,4.53
2023-03-21T12:18:08.127Z,4.30
2023-03-21T12:20:43.036Z,3.85
2023-03-21T12:23:34.720Z,4.18
2023-03-21T12:26:12.059Z,3.28
2023-03-21T12:28:49.538Z,3.65
2023-03-21T12:31:26.399Z,3.80
2023-03-21T12:34:12.197Z,3.60
2023-03-21T12:36:56.336Z,3.67
2023-03-21T12:39:30.228Z,3.65
2023-03-21T12:42:14.572Z,3.80
2023-03-21T12:44:47.053Z,3.92
2023-03-21T12:47:19.126Z,4.38
2023-03-21T12:49:52.409Z,3.95
2023-03-21T12:52:27.765Z,4.20
2023-03-21T12:55:01.129Z,4.68
2023-03-21T12:57:33.088Z,4.60
2023-03-21T13:00:10.718Z,4.38
2023-03-21T13:02:43.138Z,5.07
2023-03-21T13:05:19.640Z,6.00
2023-03-21T13:07:52.557Z,5.25
2023-03-21T13:10:23.239Z,5.00
2023-03-21T13:13:04.350Z,5.55
2023-03-21T13:15:50.839Z,5.07
2023-03-21T13:18:30.687Z,5.30
2023-03-21T13:20:59.978Z,5.13
2023-03-21T13:23:36.161Z,4.90
2023-03-21T13:26:05.003Z,5.85
2023-03-21T13:28:36.650Z,5.90
2023-03-21T13:31:20.058Z,5.72
2023-03-21T13:33:49.686Z,5.70
2023-03-21T13:38:53.252Z,4.82
2023-03-21T13:41:28.694Z,5.22
2023-03-21T13:44:09.784Z,5.28
2023-03-21T13:46:54.716Z,5.30
2023-03-21T13:49:32.766Z,5.35
2023-03-21T13:52:03.301Z,4.72
2023-03-21T13:54:48.154Z,5.43
2023-03-21T13:57:25.185Z,5.15
2023-03-21T14:00:18.880Z,5.15
2023-03-21T14:02:59.788Z,4.95
2023-03-21T14:05:29.046Z,4.50
2023-03-21T14:08:12.347Z,4.40
2023-03-21T14:10:46.448Z,5.00
2023-03-21T14:13:19.282Z,5.05
2023-03-21T14:15:56.036Z,4.60
2023-03-21T14:18:41.104Z,4.80
2023-03-21T14:21:23.393Z,5.10
2023-03-21T14:23:58.591Z,5.38
2023-03-21T14:26:30.352Z,7.38
2023-03-21T14:28:59.272Z,5.90
2023-03-21T14:31:27.537Z,4.25
2023-03-21T14:33:57.819Z,4.05
2023-03-21T14:36:28.429Z,4.07
2023-03-21T14:39:07.125Z,3.58
2023-03-21T14:41:46.876Z,3.90
2023-03-21T14:44:25.235Z,4.07
2023-03-21T14:46:54.992Z,3.90
2023-03-21T14:49:27.452Z,3.85
2023-03-21T14:51:57.271Z,4.28
2023-03-21T14:54:27.238Z,4.35
2023-03-21T14:57:01.495Z,3.83
2023-03-21T14:59:33.954Z,4.00
2023-03-21T15:02:04.263Z,4.00
2023-03-21T15:04:32.950Z,3.75
2023-03-21T15:07:05.373Z,4.47
2023-03-21T15:09:35.718Z,4.32
2023-03-21T15:12:09.553Z,4.20
2023-03-21T15:14:38.672Z,3.72
2023-03-21T15:17:09.245Z,4.65
2023-03-21T15:19:40.413Z,5.25
2023-03-21T15:22:15.882Z,5.70
2023-03-21T15:24:47.455Z,5.57
2023-03-21T15:27:19.851Z,5.63
2023-03-21T15:29:54.169Z,5.78
2023-03-21T15:32:25.586Z,5.40
2023-03-21T15:34:56.700Z,5.32
2023-03-21T15:37:27.878Z,5.20
2023-03-21T15:40:11.609Z,4.80
2023-03-21T15:42:42.466Z,4.90
2023-03-21T15:45:18.638Z,5.40
2023-03-21T15:47:55.586Z,4.70
2023-03-21T15:53:21.586Z,4.93
2023-03-21T15:55:53.113Z,5.13
2023-03-21T15:58:24.209Z,4.97
2023-03-21T16:00:55.448Z,5.53
2023-03-21T16:03:27.270Z,7.63
2023-03-21T16:06:10.141Z,8.55
2023-03-21T16:08:44.679Z,6.47
2023-03-21T16:11:19.018Z,6.13
2023-03-21T16:13:48.153Z,6.28
2023-03-21T16:16:19.201Z,6.57
2023-03-21T16:18:47.143Z,7.68
2023-03-21T16:21:17.046Z,8.20
2023-03-21T16:23:45.427Z,10.07
2023-03-21T16:26:16.491Z,11.75
2023-03-21T16:28:44.411Z,12.25
2023-03-21T16:31:16.575Z,12.75
2023-03-21T16:33:44.854Z,13.15
2023-03-21T16:36:15.392Z,14.30
2023-03-21T16:38:43.222Z,14.27
2023-03-21T16:41:12.641Z,13.95
2023-03-21T16:43:43.515Z,13.02
2023-03-21T16:46:17.784Z,14.32
2023-03-21T16:48:48.193Z,13.35
2023-03-21T16:51:16.709Z,13.30
2023-03-21T16:53:45.044Z,10.63
2023-03-21T16:56:18.641Z,10.70
2023-03-21T16:58:46.457Z,10.73
2023-03-21T17:01:19.780Z,10.80
2023-03-21T17:03:48.282Z,9.60
2023-03-21T17:06:18.189Z,9.98
2023-03-21T17:08:46.892Z,10.25
2023-03-21T17:11:17.700Z,9.80
2023-03-21T17:13:45.442Z,10.13
2023-03-21T17:16:14.544Z,10.68
2023-03-21T17:18:44.380Z,10.40
2023-03-21T17:21:15.213Z,11.57
2023-03-21T17:23:43.276Z,12.48
2023-03-21T17:26:11.269Z,11.48
2023-03-21T17:28:39.058Z,9.95
2023-03-21T17:31:12.879Z,9.70
2023-03-21T17:33:41.226Z,8.05
2023-03-21T17:36:15.250Z,7.60
2023-03-21T17:38:43.297Z,7.18
2023-03-21T17:41:13.113Z,7.07
2023-03-21T17:43:41.207Z,6.60
2023-03-21T17:46:13.481Z,5.28
2023-03-21T17:48:41.383Z,4.65
2023-03-21T17:51:12.744Z,4.53
2023-03-21T17:53:42.284Z,5.00
2023-03-21T17:56:14.991Z,5.38
2023-03-21T17:58:42.986Z,6.07
2023-03-21T18:01:10.756Z,5.00
2023-03-21T18:03:39.926Z,4.32
2023-03-21T18:06:09.227Z,4.32
2023-03-21T18:08:36.967Z,4.38
2023-03-21T18:11:06.999Z,4.38
2023-03-21T18:13:35.277Z,4.10
2023-03-21T18:16:03.028Z,4.32
2023-03-21T18:18:30.798Z,4.20
2023-03-21T18:20:59.360Z,4.10
2023-03-21T18:23:27.206Z,3.90
2023-03-21T18:25:54.987Z,4.65
2023-03-21T18:28:24.354Z,4.50
2023-03-21T18:31:13.585Z,4.15
2023-03-21T18:33:44.654Z,4.18
2023-03-21T18:36:14.897Z,4.38
2023-03-21T18:38:43.085Z,4.55
2023-03-21T18:41:12.967Z,5.00
2023-03-21T18:44:04.673Z,4.50
2023-03-21T18:46:33.361Z,5.15
2023-03-21T18:49:30.374Z,4.82
2023-03-21T18:51:51.762Z,4.85
2023-03-21T18:54:20.543Z,4.72
2023-03-21T18:57:34.675Z,5.22
2023-03-21T18:59:41.163Z,5.00
2023-03-21T19:02:09.564Z,5.30
2023-03-21T19:04:37.756Z,4.82
2023-03-21T19:07:05.666Z,5.63
2023-03-21T19:09:54.795Z,6.63
2023-03-21T19:12:21.650Z,5.55
2023-03-21T19:14:51.331Z,5.53
2023-03-21T19:20:08.065Z,5.70
2023-03-21T19:22:35.687Z,5.47
2023-03-21T19:25:05.480Z,5.10
2023-03-21T19:27:35.460Z,5.68
2023-03-21T19:32:43.615Z,5.78
2023-03-21T19:35:12.356Z,5.60
2023-03-21T19:37:39.978Z,4.87
2023-03-21T19:40:10.542Z,6.40
2023-03-21T19:42:38.197Z,7.00
2023-03-21T19:45:08.618Z,6.85
2023-03-21T19:47:36.408Z,6.30
2023-03-21T19:50:45.585Z,6.47
2023-03-21T19:52:53.105Z,6.43
2023-03-21T19:55:20.820Z,6.50
2023-03-21T19:57:49.294Z,6.07
2023-03-21T20:00:19.636Z,6.88
2023-03-21T20:02:48.077Z,7.25
2023-03-21T20:05:17.502Z,6.93
2023-03-21T20:07:45.979Z,7.10
2023-03-21T20:10:13.715Z,6.75
2023-03-21T20:12:41.397Z,7.45
2023-03-21T20:15:17.711Z,7.68
2023-03-21T20:17:49.763Z,7.10
2023-03-21T20:20:19.022Z,6.60
2023-03-21T20:25:40.983Z,5.03
2023-03-21T20:28:24.362Z,5.10
2023-03-21T20:30:57.392Z,5.07
2023-03-21T20:33:26.619Z,4.15
2023-03-21T20:36:32.883Z,4.32
2023-03-21T20:38:47.904Z,5.13
2023-03-21T20:41:16.202Z,5.00
2023-03-21T20:44:39.098Z,5.18
2023-03-21T20:46:32.334Z,5.10
2023-03-21T20:49:01.386Z,5.38
2023-03-21T20:54:18.294Z,5.63
2023-03-21T20:56:46.044Z,5.88
2023-03-21T20:59:26.169Z,5.72
2023-03-21T21:01:55.500Z,5.68
2023-03-21T21:04:39.517Z,5.95
2023-03-21T21:07:16.065Z,5.15
2023-03-21T21:09:44.600Z,4.93
2023-03-21T21:12:13.323Z,5.60
2023-03-21T21:14:42.427Z,5.00
2023-03-21T21:17:30.740Z,5.20
2023-03-21T21:20:01.515Z,4.38
2023-03-21T21:22:29.388Z,4.47
2023-03-21T21:24:57.123Z,4.18
2023-03-21T21:27:25.114Z,3.90
2023-03-21T21:29:52.862Z,3.65
2023-03-21T21:32:20.791Z,3.72
2023-03-21T21:34:49.164Z,3.50
2023-03-21T21:37:18.193Z,3.50
2023-03-21T21:39:46.662Z,4.38
2023-03-21T21:42:14.678Z,3.38
2023-03-21T21:44:44.905Z,3.30
2023-03-21T21:47:12.936Z,3.15
2023-03-21T21:49:41.401Z,3.20
2023-03-21T21:52:13.280Z,3.50
2023-03-21T21:54:45.983Z,3.60
2023-03-21T21:57:14.577Z,3.90
2023-03-21T21:59:42.231Z,3.58
2023-03-21T22:02:11.974Z,3.70
2023-03-21T22:04:39.712Z,4.30
2023-03-21T22:07:14.172Z,4.13
2023-03-21T22:09:44.439Z,4.53
2023-03-21T22:12:12.240Z,4.40
2023-03-21T22:14:40.188Z,4.28
2023-03-21T22:17:08.257Z,4.60
2023-03-21T22:19:36.829Z,4.03
2023-03-21T22:22:05.634Z,4.22
2023-03-21T22:24:33.673Z,4.75
2023-03-21T22:27:02.873Z,4.60
2023-03-21T22:29:31.502Z,4.47
2023-03-21T22:31:59.297Z,3.67
2023-03-21T22:34:27.869Z,4.47
2023-03-21T22:36:57.322Z,4.40
2023-03-21T22:39:26.347Z,3.95
2023-03-21T22:41:57.286Z,4.80
2023-03-21T22:44:26.455Z,5.18
2023-03-21T22:46:54.133Z,4.80
2023-03-21T22:49:22.374Z,5.32
2023-03-21T22:51:50.056Z,6.25
2023-03-21T22:54:17.742Z,6.97
2023-03-21T22:56:45.874Z,7.95
2023-03-21T22:59:13.539Z,8.10
2023-03-21T23:01:42.715Z,9.15
2023-03-21T23:04:11.454Z,8.45
2023-03-21T23:06:41.049Z,8.80
2023-03-21T23:09:09.541Z,9.13
2023-03-21T23:11:38.404Z,8.93
2023-03-21T23:14:08.456Z,9.48
2023-03-21T23:16:38.245Z,8.38
2023-03-21T23:19:09.498Z,9.18
2023-03-21T23:21:38.426Z,8.30
2023-03-21T23:24:07.362Z,8.52
2023-03-21T23:26:36.122Z,8.10
2023-03-21T23:29:03.945Z,8.47
2023-03-21T23:31:32.873Z,7.80
2023-03-21T23:34:01.326Z,7.10
2023-03-21T23:36:30.880Z,7.05
2023-03-21T23:38:58.957Z,7.03
2023-03-21T23:41:27.591Z,7.43
2023-03-21T23:43:55.303Z,7.43
2023-03-21T23:46:23.112Z,6.75
2023-03-21T23:48:51.383Z,7.05
2023-03-21T23:51:19.458Z,6.20
2023-03-21T23:53:48.972Z,6.75
2023-03-21T23:56:19.216Z,6.47
2023-03-21T23:58:47.784Z,6.78
